createdAt,value
2019-03-24T13:12:12.361Z,73.90
2019-03-24T13:14:45.849Z,75.40
2019-03-24T13:19:02.567Z,75.10
2019-03-24T13:21:36.081Z,72.60
2019-03-24T13:24:09.572Z,72.20
2019-03-24T13:26:43.043Z,68.00
2019-03-24T13:47:43.654Z,65.70
2019-03-24T13:50:17.404Z,67.10
2019-03-24T13:52:51.089Z,67.60
2019-03-24T13:55:24.902Z,67.50
2019-03-24T13:57:58.595Z,64.90
2019-03-24T14:00:32.326Z,62.40
2019-03-24T14:03:05.958Z,63.80
2019-03-24T14:05:39.766Z,64.10
2019-03-24T14:08:13.484Z,62.90
2019-03-24T14:10:47.211Z,61.70
2019-03-24T14:13:20.849Z,63.50
2019-03-24T14:15:54.584Z,63.70
2019-03-24T14:18:28.311Z,61.70
2019-03-24T14:21:01.972Z,63.00
2019-03-24T14:23:35.667Z,63.30
2019-03-24T14:26:09.324Z,63.40
2019-03-24T14:28:43.027Z,64.70
2019-03-24T14:31:16.700Z,64.90
2019-03-24T14:33:50.332Z,64.60
2019-03-24T14:36:24.008Z,67.30
2019-03-24T14:38:57.706Z,68.30
2019-03-24T14:41:31.460Z,69.80
2019-03-24T14:44:05.215Z,70.10
2019-03-24T14:46:38.916Z,70.00
2019-03-24T14:49:12.649Z,68.20
2019-03-24T14:51:46.308Z,68.80
2019-03-24T14:54:19.785Z,69.50
2019-03-24T14:56:53.729Z,69.70
2019-03-24T14:59:27.465Z,69.80
2019-03-24T15:02:01.145Z,70.30
2019-03-24T15:04:34.910Z,69.50
2019-03-24T15:07:08.572Z,70.10
2019-03-24T15:09:42.233Z,70.70
2019-03-24T15:12:16.928Z,70.80
2019-03-24T15:14:50.582Z,70.70
2019-03-24T15:17:24.211Z,70.70
2019-03-24T15:19:57.872Z,70.90
2019-03-24T15:22:31.544Z,72.20
2019-03-24T15:25:06.370Z,73.00
2019-03-24T15:27:40.092Z,74.00
2019-03-24T15:30:14.252Z,74.60
2019-03-24T15:32:48.019Z,75.70
2019-03-24T15:35:21.744Z,75.50
2019-03-24T15:38:07.770Z,75.60
2019-03-24T15:40:31.017Z,75.70
2019-03-24T15:43:04.684Z,75.60
2019-03-24T15:45:38.425Z,75.40
2019-03-24T15:48:12.121Z,75.20
2019-03-24T15:50:45.700Z,75.20
2019-03-24T15:53:19.314Z,76.30
2019-03-24T15:55:52.997Z,76.30
2019-03-24T15:58:26.611Z,76.80
2019-03-24T16:01:00.259Z,77.50
2019-03-24T16:03:33.892Z,77.60
2019-03-24T16:06:07.554Z,77.40
2019-03-24T16:08:41.273Z,77.10
2019-03-24T16:11:16.168Z,76.30
2019-03-24T16:13:50.027Z,77.20
2019-03-24T16:16:23.689Z,78.00
2019-03-24T16:18:57.313Z,77.40
2019-03-24T16:21:31.370Z,77.60
2019-03-24T16:24:05.064Z,77.30
2019-03-24T16:26:38.701Z,78.00
2019-03-24T16:29:12.312Z,78.20
2019-03-24T16:31:45.972Z,78.00
2019-03-24T16:34:19.667Z,78.60
2019-03-24T16:36:53.336Z,79.20
2019-03-24T16:39:26.951Z,78.90
2019-03-24T16:42:00.604Z,78.00
2019-03-24T16:44:34.220Z,78.10
2019-03-24T16:47:07.874Z,78.20
2019-03-24T16:49:41.615Z,78.70
2019-03-24T16:52:15.291Z,78.90
2019-03-24T16:54:48.827Z,78.50
2019-03-24T16:57:23.127Z,78.80
2019-03-24T16:59:56.712Z,79.30
2019-03-24T17:02:30.357Z,79.20
2019-03-24T17:05:07.567Z,79.60
2019-03-24T17:07:41.221Z,79.80
2019-03-24T17:10:14.827Z,79.70
2019-03-24T17:12:48.483Z,79.70
2019-03-24T17:15:22.171Z,79.90
2019-03-24T17:17:56.519Z,80.00
2019-03-24T17:20:30.215Z,80.00
2019-03-24T17:23:04.136Z,79.40
2019-03-24T17:25:37.753Z,78.60
2019-03-24T17:28:11.478Z,79.00
2019-03-24T17:30:45.092Z,79.50
2019-03-24T17:33:18.815Z,80.20
2019-03-24T17:35:52.447Z,80.70
2019-03-24T17:38:26.165Z,81.20
2019-03-24T17:40:59.792Z,81.50
2019-03-24T17:43:33.626Z,81.20
2019-03-24T17:46:07.316Z,81.60
2019-03-24T17:48:40.867Z,81.70
2019-03-24T17:51:14.593Z,82.30
2019-03-24T17:53:48.138Z,81.90
2019-03-24T17:56:21.883Z,82.20
2019-03-24T17:58:55.504Z,82.20
2019-03-24T18:01:29.153Z,82.50
2019-03-24T18:04:02.861Z,82.50
2019-03-24T18:06:36.527Z,83.10
2019-03-24T18:09:10.149Z,83.30
2019-03-24T18:11:43.875Z,83.00
2019-03-24T18:14:17.567Z,83.60
2019-03-24T18:16:51.143Z,83.60
2019-03-24T18:19:24.805Z,84.20
2019-03-24T18:21:58.519Z,84.20
2019-03-24T18:24:32.211Z,84.10
2019-03-24T18:27:05.818Z,84.50
2019-03-24T18:29:39.446Z,84.60
2019-03-24T18:32:13.160Z,84.60
2019-03-24T18:34:46.780Z,84.20
2019-03-24T18:37:20.512Z,84.20
2019-03-24T18:39:54.206Z,84.70
2019-03-24T18:42:27.863Z,84.00
2019-03-24T18:45:01.479Z,84.80
2019-03-24T18:47:35.134Z,84.20
2019-03-24T18:50:09.849Z,84.30
2019-03-24T18:52:43.508Z,84.00
2019-03-24T18:55:17.157Z,84.40
2019-03-24T18:57:51.278Z,84.30
2019-03-24T19:00:24.934Z,84.50
2019-03-24T19:02:58.669Z,84.20
2019-03-24T19:05:32.361Z,84.20
2019-03-24T19:08:06.085Z,84.20
2019-03-24T19:10:39.777Z,83.70
2019-03-24T19:13:13.589Z,84.00
2019-03-24T19:15:47.288Z,83.50
2019-03-24T19:20:51.345Z,83.60
2019-03-24T19:23:24.993Z,83.50
2019-03-24T19:25:58.607Z,83.40
2019-03-24T19:28:32.264Z,83.10
2019-03-24T19:31:06.340Z,83.00
2019-03-24T19:33:40.426Z,82.70
2019-03-24T19:36:14.108Z,82.50
2019-03-24T19:38:47.988Z,82.70
2019-03-24T19:41:21.695Z,82.60
2019-03-24T19:43:55.284Z,82.20
2019-03-24T19:46:29.015Z,82.60
2019-03-24T19:49:02.646Z,82.70
2019-03-24T19:51:36.249Z,82.70
2019-03-24T19:54:09.975Z,82.40
2019-03-24T19:56:43.527Z,82.80
2019-03-24T19:59:17.259Z,82.80
2019-03-24T20:01:50.878Z,82.80
2019-03-24T20:04:24.528Z,82.50
2019-03-24T20:06:58.226Z,82.40
2019-03-24T20:09:31.910Z,82.20
2019-03-24T20:12:05.611Z,82.30
2019-03-24T20:14:39.167Z,82.50
2019-03-24T20:17:12.822Z,82.50
2019-03-24T20:19:46.447Z,82.50
2019-03-24T20:22:19.963Z,82.70
2019-03-24T20:24:53.588Z,82.70
2019-03-24T20:27:27.341Z,82.50
2019-03-24T20:30:00.883Z,82.60
2019-03-24T20:32:34.476Z,82.40
2019-03-24T20:35:09.938Z,82.40
2019-03-24T20:37:43.530Z,82.50
2019-03-24T20:40:17.235Z,82.40
2019-03-24T20:42:50.901Z,82.60
2019-03-24T20:45:24.452Z,82.40
2019-03-24T20:47:58.119Z,82.40
2019-03-24T20:50:31.676Z,82.40
2019-03-24T20:53:17.318Z,82.70
2019-03-24T20:55:40.743Z,82.40
2019-03-24T20:58:14.324Z,82.80
2019-03-24T21:00:48.021Z,83.00
2019-03-24T21:03:21.779Z,83.10
2019-03-24T21:05:55.400Z,83.00
2019-03-24T21:08:28.994Z,83.10
2019-03-24T21:11:02.538Z,83.50
2019-03-24T21:13:36.203Z,83.60
2019-03-24T21:16:09.753Z,84.10
2019-03-24T21:18:43.483Z,85.20
2019-03-24T21:21:17.321Z,85.50
2019-03-24T21:23:50.988Z,85.80
2019-03-24T21:26:24.537Z,86.20
2019-03-24T21:28:58.275Z,86.60
2019-03-24T21:31:31.827Z,86.60
2019-03-24T21:34:05.401Z,86.70
2019-03-24T21:36:39.012Z,86.60
2019-03-24T21:39:12.747Z,86.70
2019-03-24T21:41:46.373Z,86.70
2019-03-24T21:44:19.946Z,86.60
2019-03-24T21:46:53.574Z,86.70
2019-03-24T21:49:27.321Z,87.10
2019-03-24T21:52:00.877Z,87.70
2019-03-24T21:54:34.548Z,87.50
2019-03-24T21:57:08.212Z,87.10
2019-03-24T21:59:41.772Z,87.40
2019-03-24T22:02:15.413Z,87.50
2019-03-24T22:04:49.124Z,87.60
2019-03-24T22:07:22.747Z,87.00
2019-03-24T22:09:56.483Z,87.50
2019-03-24T22:12:30.100Z,87.90
2019-03-24T22:15:04.880Z,88.50
2019-03-24T22:17:38.434Z,89.00
2019-03-24T22:20:12.751Z,89.20
2019-03-24T22:22:46.299Z,89.50
2019-03-24T22:25:19.807Z,89.90
2019-03-24T22:27:53.426Z,90.20
2019-03-24T22:30:29.210Z,90.00
2019-03-24T22:33:02.471Z,89.80
2019-03-24T22:35:36.034Z,89.90
2019-03-24T22:38:09.692Z,89.60
2019-03-24T22:40:43.245Z,90.20
2019-03-24T22:43:16.913Z,90.10
2019-03-24T22:45:50.400Z,90.20
2019-03-24T22:48:24.006Z,90.40
2019-03-24T22:50:57.553Z,90.30
2019-03-24T22:53:31.151Z,90.20
2019-03-24T22:56:04.707Z,90.70
2019-03-24T22:58:38.385Z,90.80
2019-03-24T23:01:12.873Z,91.10
2019-03-24T23:03:46.603Z,91.10
2019-03-24T23:06:20.220Z,91.10
2019-03-24T23:08:53.873Z,91.00
2019-03-24T23:11:27.495Z,90.90
2019-03-24T23:14:01.156Z,91.30
2019-03-24T23:16:34.710Z,91.10
2019-03-24T23:19:08.312Z,90.70
2019-03-24T23:21:41.935Z,90.80
2019-03-24T23:24:16.093Z,91.20
2019-03-24T23:26:50.001Z,91.40
2019-03-24T23:29:23.628Z,91.20
2019-03-24T23:31:57.294Z,91.10
2019-03-24T23:34:30.860Z,91.20
2019-03-24T23:37:04.508Z,91.40
2019-03-24T23:39:37.993Z,92.20
2019-03-24T23:42:11.654Z,92.70
2019-03-24T23:44:45.141Z,92.50
2019-03-24T23:47:18.883Z,92.20
2019-03-24T23:49:52.395Z,92.00
2019-03-24T23:52:25.971Z,91.70
2019-03-24T23:54:59.621Z,91.80
2019-03-24T23:57:33.172Z,91.20
